createdAt,value
2022-10-12T00:01:12.633Z,6.68
2022-10-12T00:03:40.515Z,5.55
2022-10-12T00:06:20.137Z,5.68
2022-10-12T00:08:49.015Z,4.60
2022-10-12T00:11:26.426Z,4.57
2022-10-12T00:13:55.007Z,4.82
2022-10-12T00:16:24.135Z,4.28
2022-10-12T00:18:53.649Z,4.30
2022-10-12T00:21:22.348Z,4.20
2022-10-12T00:23:50.641Z,3.80
2022-10-12T00:26:21.731Z,3.78
2022-10-12T00:28:54.322Z,3.75
2022-10-12T00:31:22.082Z,3.90
2022-10-12T00:33:49.802Z,3.38
2022-10-12T00:36:19.312Z,3.63
2022-10-12T00:38:50.232Z,3.65
2022-10-12T00:41:20.681Z,3.70
2022-10-12T00:43:52.916Z,3.42
2022-10-12T00:46:42.691Z,3.80
2022-10-12T00:49:24.210Z,3.78
2022-10-12T00:51:57.646Z,4.35
2022-10-12T00:54:31.001Z,3.25
2022-10-12T00:57:01.612Z,3.38
2022-10-12T00:59:35.107Z,3.63
2022-10-12T01:02:02.965Z,3.22
2022-10-12T01:04:32.894Z,3.63
2022-10-12T01:07:01.132Z,2.95
2022-10-12T01:09:29.220Z,3.20
2022-10-12T01:11:58.496Z,3.30
2022-10-12T01:14:26.646Z,2.92
2022-10-12T01:17:03.243Z,3.05
2022-10-12T01:19:59.103Z,3.13
2022-10-12T01:22:29.308Z,2.70
2022-10-12T01:25:36.470Z,2.83
2022-10-12T01:28:13.903Z,2.90
2022-10-12T01:30:45.726Z,2.80
2022-10-12T01:33:22.552Z,2.70
2022-10-12T01:36:05.504Z,3.20
2022-10-12T01:38:53.711Z,3.20
2022-10-12T01:41:30.159Z,3.17
2022-10-12T01:43:57.850Z,2.70
2022-10-12T01:46:25.575Z,2.90
2022-10-12T01:48:59.808Z,2.63
2022-10-12T01:52:08.838Z,2.70
2022-10-12T01:54:42.773Z,2.88
2022-10-12T01:57:23.711Z,2.92
2022-10-12T02:00:01.510Z,3.20
2022-10-12T02:02:45.223Z,2.78
2022-10-12T02:05:24.916Z,2.30
2022-10-12T02:07:58.332Z,3.10
2022-10-12T02:10:45.279Z,2.67
2022-10-12T02:13:15.517Z,2.95
2022-10-12T02:15:45.088Z,2.78
2022-10-12T02:18:17.618Z,2.78
2022-10-12T02:20:51.214Z,2.47
2022-10-12T02:23:22.802Z,2.92
2022-10-12T02:25:52.998Z,2.53
2022-10-12T02:28:24.184Z,2.55
2022-10-12T02:31:16.201Z,2.47
2022-10-12T02:33:56.644Z,2.38
2022-10-12T02:36:34.643Z,2.53
2022-10-12T02:39:09.826Z,2.35
2022-10-12T02:41:43.895Z,2.63
2022-10-12T02:44:15.364Z,2.47
2022-10-12T02:46:45.294Z,2.38
2022-10-12T02:49:14.519Z,2.63
2022-10-12T02:51:44.951Z,2.85
2022-10-12T02:54:13.461Z,2.65
2022-10-12T02:56:47.735Z,2.65
2022-10-12T02:59:18.110Z,2.50
2022-10-12T03:01:46.334Z,2.63
2022-10-12T03:04:14.579Z,2.40
2022-10-12T03:06:45.554Z,2.97
2022-10-12T03:09:14.270Z,3.58
2022-10-12T03:11:44.877Z,3.28
2022-10-12T03:14:17.691Z,3.38
2022-10-12T03:16:46.866Z,3.88
2022-10-12T03:19:15.122Z,3.63
2022-10-12T03:21:42.666Z,3.13
2022-10-12T03:24:10.711Z,3.30
2022-10-12T03:26:38.260Z,3.50
2022-10-12T03:29:05.947Z,3.30
2022-10-12T03:31:33.649Z,3.33
2022-10-12T03:34:01.286Z,3.28
2022-10-12T03:36:28.915Z,3.13
2022-10-12T03:38:56.614Z,3.30
2022-10-12T03:41:24.431Z,3.10
2022-10-12T03:43:52.171Z,3.15
2022-10-12T03:46:19.797Z,3.10
2022-10-12T03:48:47.538Z,2.92
2022-10-12T03:51:15.372Z,2.80
2022-10-12T03:53:45.617Z,2.78
2022-10-12T03:56:13.682Z,2.83
2022-10-12T03:58:41.412Z,2.80
2022-10-12T04:01:09.801Z,3.00
2022-10-12T04:03:37.353Z,3.00
2022-10-12T04:06:05.512Z,2.80
2022-10-12T04:08:33.079Z,3.28
2022-10-12T04:11:00.917Z,2.90
2022-10-12T04:13:28.620Z,2.45
2022-10-12T04:16:01.845Z,3.10
2022-10-12T04:18:29.554Z,3.10
2022-10-12T04:20:57.453Z,2.63
2022-10-12T04:23:25.664Z,2.67
2022-10-12T04:25:53.315Z,2.58
2022-10-12T04:28:21.279Z,2.35
2022-10-12T04:30:48.939Z,2.70
2022-10-12T04:33:16.762Z,2.42
2022-10-12T04:35:44.477Z,2.63
2022-10-12T04:38:13.434Z,2.28
2022-10-12T04:40:41.511Z,2.70
2022-10-12T04:43:09.312Z,2.65
2022-10-12T04:45:36.984Z,2.50
2022-10-12T04:48:04.722Z,2.55
2022-10-12T04:50:32.465Z,2.67
2022-10-12T04:53:00.087Z,2.58
2022-10-12T04:55:27.810Z,2.63
2022-10-12T04:57:55.517Z,2.90
2022-10-12T05:00:23.037Z,2.83
2022-10-12T05:02:50.837Z,2.50
2022-10-12T05:05:18.642Z,2.28
2022-10-12T05:07:46.290Z,2.17
2022-10-12T05:10:14.698Z,2.55
2022-10-12T05:12:43.802Z,2.83
2022-10-12T05:15:11.701Z,2.35
2022-10-12T05:17:40.004Z,2.38
2022-10-12T05:20:08.765Z,2.00
2022-10-12T05:22:36.421Z,2.40
2022-10-12T05:25:05.325Z,2.70
2022-10-12T05:27:33.190Z,2.25
2022-10-12T05:30:01.006Z,2.50
2022-10-12T05:32:28.888Z,2.80
2022-10-12T05:34:56.474Z,3.20
2022-10-12T05:37:24.111Z,3.53
2022-10-12T05:39:52.136Z,3.58
2022-10-12T05:42:19.861Z,3.50
2022-10-12T05:44:47.615Z,3.83
2022-10-12T05:47:15.398Z,3.50
2022-10-12T05:49:43.073Z,3.42
2022-10-12T05:52:10.789Z,2.85
2022-10-12T05:54:39.022Z,3.55
2022-10-12T05:57:06.778Z,4.13
2022-10-12T05:59:35.592Z,5.32
2022-10-12T06:02:03.475Z,5.18
2022-10-12T06:04:31.056Z,4.20
2022-10-12T06:06:58.730Z,3.22
2022-10-12T06:09:26.846Z,2.50
2022-10-12T06:11:54.947Z,2.33
2022-10-12T06:14:22.688Z,2.17
2022-10-12T06:16:53.795Z,2.08
2022-10-12T06:19:22.545Z,2.35
2022-10-12T06:21:50.203Z,1.98
2022-10-12T06:24:18.036Z,1.80
2022-10-12T06:26:45.816Z,1.80
2022-10-12T06:29:13.837Z,2.00
2022-10-12T06:31:41.660Z,1.90
2022-10-12T06:34:09.384Z,2.33
2022-10-12T06:36:37.050Z,2.08
2022-10-12T06:39:04.582Z,2.55
2022-10-12T06:41:32.311Z,4.03
2022-10-12T06:43:59.829Z,7.28
2022-10-12T06:46:27.733Z,5.63
2022-10-12T06:48:55.316Z,4.10
2022-10-12T06:51:22.881Z,3.70
2022-10-12T06:53:50.881Z,2.78
2022-10-12T06:56:18.606Z,2.03
2022-10-12T06:58:46.934Z,2.20
2022-10-12T07:01:14.787Z,1.77
2022-10-12T07:03:42.525Z,2.00
2022-10-12T07:06:13.337Z,2.00
2022-10-12T07:08:41.663Z,2.40
2022-10-12T07:11:12.422Z,1.77
2022-10-12T07:13:40.100Z,1.70
2022-10-12T07:16:08.429Z,1.90
2022-10-12T07:18:36.232Z,1.70
2022-10-12T07:21:04.238Z,1.95
2022-10-12T07:23:33.573Z,2.17
2022-10-12T07:26:01.815Z,1.77
2022-10-12T07:28:29.633Z,1.98
2022-10-12T07:31:04.705Z,2.03
2022-10-12T07:33:36.894Z,1.65
2022-10-12T07:36:15.679Z,1.80
2022-10-12T07:38:48.766Z,2.00
2022-10-12T07:41:17.032Z,1.67
2022-10-12T07:43:45.093Z,1.40
2022-10-12T07:46:12.864Z,2.50
2022-10-12T07:48:48.916Z,3.50
2022-10-12T07:51:18.620Z,3.90
2022-10-12T07:53:47.036Z,4.20
2022-10-12T07:56:17.618Z,7.22
2022-10-12T07:58:56.748Z,7.95
2022-10-12T08:01:28.158Z,5.90
2022-10-12T08:04:01.000Z,4.65
2022-10-12T08:06:31.989Z,3.70
2022-10-12T08:09:01.401Z,3.17
2022-10-12T08:11:29.438Z,3.38
2022-10-12T08:13:57.214Z,3.35
2022-10-12T08:16:24.860Z,2.90
2022-10-12T08:18:52.472Z,3.00
2022-10-12T08:21:20.674Z,2.80
2022-10-12T08:23:48.822Z,2.50
2022-10-12T08:26:16.571Z,2.70
2022-10-12T08:28:44.655Z,2.30
2022-10-12T08:31:16.875Z,2.30
2022-10-12T08:33:44.756Z,2.20
2022-10-12T08:36:12.637Z,2.30
2022-10-12T08:38:40.384Z,2.45
2022-10-12T08:41:31.239Z,2.53
2022-10-12T08:43:58.824Z,2.28
2022-10-12T08:46:29.901Z,2.40
2022-10-12T08:48:57.353Z,3.47
2022-10-12T08:51:29.174Z,4.15
2022-10-12T08:53:57.043Z,3.75
2022-10-12T08:56:24.933Z,3.55
2022-10-12T08:58:54.413Z,2.75
2022-10-12T09:01:37.482Z,2.70
2022-10-12T09:04:14.684Z,3.42
2022-10-12T09:06:54.474Z,4.20
2022-10-12T09:09:52.707Z,3.45
2022-10-12T09:12:23.229Z,3.75
2022-10-12T09:14:57.369Z,3.88
2022-10-12T09:17:42.608Z,3.88
2022-10-12T09:20:24.023Z,4.20
2022-10-12T09:22:55.783Z,3.65
2022-10-12T09:25:28.910Z,2.95
2022-10-12T09:28:14.407Z,2.70
2022-10-12T09:31:18.188Z,2.25
2022-10-12T09:33:58.542Z,2.00
2022-10-12T09:36:31.093Z,1.75
2022-10-12T09:39:02.419Z,2.28
2022-10-12T09:41:35.993Z,2.15
2022-10-12T09:44:05.390Z,2.25
2022-10-12T09:46:41.874Z,2.13
2022-10-12T09:49:09.560Z,2.63
2022-10-12T09:51:37.800Z,2.63
2022-10-12T09:54:06.571Z,2.90
2022-10-12T09:56:41.409Z,2.70
2022-10-12T09:59:24.305Z,2.60
2022-10-12T10:02:13.830Z,2.50
2022-10-12T10:04:43.184Z,2.97
2022-10-12T10:07:33.698Z,4.40
2022-10-12T10:10:04.296Z,5.18
2022-10-12T10:12:32.125Z,4.82
2022-10-12T10:15:00.149Z,4.95
2022-10-12T10:17:34.773Z,4.45
2022-10-12T10:20:06.318Z,4.55
2022-10-12T10:22:34.127Z,3.90
2022-10-12T10:25:02.710Z,4.30
2022-10-12T10:27:39.191Z,4.82
2022-10-12T10:30:29.596Z,6.03
2022-10-12T10:33:18.617Z,7.13
2022-10-12T10:36:01.134Z,9.00
2022-10-12T10:38:33.079Z,9.00
2022-10-12T10:41:06.796Z,7.70
2022-10-12T10:43:35.472Z,6.38
2022-10-12T10:46:04.814Z,5.68
2022-10-12T10:48:56.533Z,5.28
2022-10-12T10:51:44.764Z,5.05
2022-10-12T10:54:27.448Z,4.93
2022-10-12T10:57:05.035Z,4.95
2022-10-12T10:59:54.482Z,4.15
2022-10-12T11:02:37.298Z,3.90
2022-10-12T11:05:12.466Z,3.67
2022-10-12T11:07:48.546Z,3.63
2022-10-12T11:10:42.360Z,4.50
2022-10-12T11:13:20.442Z,4.15
2022-10-12T11:15:54.396Z,4.40
2022-10-12T11:18:50.427Z,5.10
2022-10-12T11:21:26.716Z,7.55
2022-10-12T11:24:01.878Z,7.95
2022-10-12T11:26:38.179Z,9.40
2022-10-12T11:29:06.737Z,15.23
2022-10-12T11:31:39.961Z,9.98
2022-10-12T11:34:13.688Z,9.43
2022-10-12T11:37:07.544Z,8.25
2022-10-12T11:39:43.020Z,8.20
2022-10-12T11:44:50.601Z,8.32
2022-10-12T11:47:31.552Z,7.97
2022-10-12T11:50:21.122Z,7.68
2022-10-12T11:52:52.267Z,7.13
2022-10-12T11:56:09.048Z,7.45
2022-10-12T11:58:59.952Z,6.63
2022-10-12T12:01:35.558Z,5.78
2022-10-12T12:04:22.700Z,4.13
2022-10-12T12:07:03.356Z,4.10
2022-10-12T12:09:46.507Z,3.97
2022-10-12T12:12:26.774Z,3.83
2022-10-12T12:14:54.264Z,4.30
2022-10-12T12:17:22.041Z,3.80
2022-10-12T12:19:56.793Z,4.07
2022-10-12T12:22:34.794Z,4.35
2022-10-12T12:25:10.497Z,4.32
2022-10-12T12:27:46.751Z,3.80
2022-10-12T12:30:21.304Z,4.00
2022-10-12T12:32:53.202Z,2.70
2022-10-12T12:35:41.020Z,3.17
2022-10-12T12:38:19.051Z,2.85
2022-10-12T12:40:57.459Z,3.00
2022-10-12T12:43:31.147Z,3.80
2022-10-12T12:46:09.098Z,4.38
2022-10-12T12:48:40.115Z,4.13
2022-10-12T12:51:21.930Z,3.15
2022-10-12T12:53:58.808Z,3.00
2022-10-12T12:59:35.967Z,7.35
2022-10-12T13:02:13.019Z,9.30
2022-10-12T13:05:18.826Z,9.82
2022-10-12T13:08:23.815Z,16.20
2022-10-12T13:11:16.528Z,16.15
2022-10-12T13:14:12.742Z,15.95
2022-10-12T13:19:49.077Z,11.10
2022-10-12T13:22:28.721Z,14.30
2022-10-12T13:25:04.642Z,11.20
2022-10-12T13:27:47.352Z,10.35
2022-10-12T13:30:27.268Z,9.98
2022-10-12T13:33:15.175Z,9.85
2022-10-12T13:36:11.220Z,8.50
2022-10-12T13:38:39.559Z,7.78
2022-10-12T13:41:19.433Z,6.68
2022-10-12T13:44:07.250Z,5.78
2022-10-12T13:46:44.556Z,5.07
2022-10-12T13:49:16.129Z,4.75
2022-10-12T13:51:49.587Z,4.60
2022-10-12T13:54:22.259Z,4.60
2022-10-12T13:57:03.254Z,4.50
2022-10-12T13:59:36.753Z,4.15
2022-10-12T14:02:26.022Z,3.55
2022-10-12T14:04:59.233Z,3.50
2022-10-12T14:07:37.146Z,3.05
2022-10-12T14:10:08.747Z,3.35
2022-10-12T14:12:37.480Z,3.08
2022-10-12T14:15:06.626Z,3.53
2022-10-12T14:17:41.699Z,3.25
2022-10-12T14:20:29.841Z,3.10
2022-10-12T14:22:59.766Z,2.85
2022-10-12T14:25:29.687Z,2.65
2022-10-12T14:28:07.468Z,2.33
2022-10-12T14:30:39.482Z,2.80
2022-10-12T14:33:10.226Z,2.90
2022-10-12T14:35:39.005Z,3.25
2022-10-12T14:38:39.078Z,4.90
2022-10-12T14:41:28.580Z,4.00
2022-10-12T14:44:27.138Z,4.30
2022-10-12T14:47:10.791Z,3.92
2022-10-12T14:49:41.746Z,3.63
2022-10-12T14:52:20.282Z,3.50
2022-10-12T14:54:53.003Z,3.30
2022-10-12T14:57:21.496Z,3.30
2022-10-12T14:59:49.639Z,3.20
2022-10-12T15:02:24.602Z,3.20
2022-10-12T15:04:52.570Z,2.90
2022-10-12T15:07:23.675Z,2.72
2022-10-12T15:09:51.750Z,3.17
2022-10-12T15:12:22.051Z,3.53
2022-10-12T15:14:51.429Z,3.08
2022-10-12T15:17:19.858Z,2.50
2022-10-12T15:19:49.280Z,2.75
2022-10-12T15:22:22.459Z,2.60
2022-10-12T15:24:51.597Z,3.13
2022-10-12T15:27:19.505Z,3.25
2022-10-12T15:29:48.286Z,3.25
2022-10-12T15:32:18.872Z,3.28
2022-10-12T15:34:46.708Z,4.35
2022-10-12T15:37:14.472Z,4.30
2022-10-12T15:39:43.026Z,4.13
2022-10-12T15:42:12.550Z,3.85
2022-10-12T15:44:41.499Z,3.90
2022-10-12T15:47:11.444Z,4.22
2022-10-12T15:49:39.267Z,3.75
2022-10-12T15:52:11.541Z,3.78
2022-10-12T15:54:40.002Z,4.03
2022-10-12T15:57:07.749Z,4.10
2022-10-12T15:59:36.267Z,3.70
2022-10-12T16:02:03.862Z,3.35
2022-10-12T16:04:31.471Z,3.38
2022-10-12T16:07:01.394Z,2.78
2022-10-12T16:09:28.972Z,3.08
2022-10-12T16:11:56.767Z,3.40
2022-10-12T16:14:24.553Z,5.80
2022-10-12T16:16:52.364Z,8.23
2022-10-12T16:19:20.168Z,9.02
2022-10-12T16:21:47.705Z,9.40
2022-10-12T16:24:15.279Z,7.80
2022-10-12T16:26:45.057Z,6.68
2022-10-12T16:29:12.806Z,6.60
2022-10-12T16:31:40.382Z,5.18
2022-10-12T16:34:08.195Z,4.63
2022-10-12T16:36:35.993Z,4.25
2022-10-12T16:39:03.924Z,4.28
2022-10-12T16:41:34.048Z,3.83
2022-10-12T16:44:02.161Z,3.90
2022-10-12T16:46:30.723Z,4.20
2022-10-12T16:48:58.285Z,4.95
2022-10-12T16:51:26.010Z,5.35
2022-10-12T16:53:54.553Z,5.55
2022-10-12T16:56:22.313Z,6.28
2022-10-12T16:58:49.892Z,6.80
2022-10-12T17:01:17.561Z,8.85
2022-10-12T17:03:45.323Z,9.90
2022-10-12T17:06:12.949Z,10.60
2022-10-12T17:08:40.562Z,11.13
2022-10-12T17:11:10.481Z,9.90
2022-10-12T17:13:38.930Z,9.23
2022-10-12T17:16:37.339Z,8.32
2022-10-12T17:19:05.161Z,8.88
2022-10-12T17:21:33.294Z,8.80
2022-10-12T17:24:01.945Z,9.02
2022-10-12T17:26:30.208Z,7.75
2022-10-12T17:28:57.989Z,7.50
2022-10-12T17:31:26.358Z,7.05
2022-10-12T17:33:54.375Z,5.72
2022-10-12T17:36:27.153Z,5.85
2022-10-12T17:38:57.762Z,5.05
2022-10-12T17:41:27.318Z,4.40
2022-10-12T17:43:55.225Z,4.30
2022-10-12T17:46:23.024Z,4.90
2022-10-12T17:48:51.219Z,3.80
2022-10-12T17:51:19.004Z,3.95
2022-10-12T17:53:46.715Z,3.85
2022-10-12T17:56:15.855Z,4.03
2022-10-12T17:58:43.651Z,3.85
2022-10-12T18:01:15.345Z,3.72
2022-10-12T18:03:46.231Z,3.78
2022-10-12T18:06:16.704Z,4.15
2022-10-12T18:08:44.882Z,4.30
2022-10-12T18:11:14.225Z,4.43
2022-10-12T18:13:49.598Z,7.45
2022-10-12T18:16:20.034Z,8.13
2022-10-12T18:18:52.683Z,6.15
2022-10-12T18:21:22.807Z,5.38
2022-10-12T18:23:51.414Z,4.80
2022-10-12T18:26:22.010Z,4.80
2022-10-12T18:28:51.797Z,4.35
2022-10-12T18:31:22.853Z,4.43
2022-10-12T18:33:50.794Z,3.67
2022-10-12T18:36:19.595Z,4.13
2022-10-12T18:38:47.380Z,5.53
2022-10-12T18:41:22.705Z,6.70
2022-10-12T18:44:15.771Z,7.68
2022-10-12T18:46:43.495Z,7.65
2022-10-12T18:49:11.764Z,7.00
2022-10-12T18:51:42.360Z,7.32
2022-10-12T18:54:13.133Z,8.30
2022-10-12T18:56:42.030Z,10.80
2022-10-12T18:59:12.153Z,12.65
2022-10-12T19:01:39.937Z,13.25
2022-10-12T19:04:07.906Z,10.98
2022-10-12T19:06:39.667Z,9.32
2022-10-12T19:09:07.502Z,8.18
2022-10-12T19:11:36.350Z,6.00
2022-10-12T19:14:13.797Z,6.15
2022-10-12T19:16:42.213Z,7.55
2022-10-12T19:19:19.685Z,7.45
2022-10-12T19:21:50.258Z,7.20
2022-10-12T19:24:19.839Z,6.50
2022-10-12T19:26:48.447Z,5.28
2022-10-12T19:29:16.253Z,5.28
2022-10-12T19:31:46.773Z,5.97
2022-10-12T19:34:18.718Z,6.28
2022-10-12T19:36:47.037Z,8.35
2022-10-12T19:39:19.520Z,10.10
2022-10-12T19:41:48.019Z,11.80
2022-10-12T19:44:16.001Z,13.32
2022-10-12T19:46:47.317Z,11.35
2022-10-12T19:49:17.110Z,10.55
2022-10-12T19:51:45.192Z,9.05
2022-10-12T19:54:14.615Z,13.13
2022-10-12T19:56:42.296Z,12.13
2022-10-12T19:59:09.923Z,10.88
2022-10-12T20:01:39.734Z,9.40
2022-10-12T20:04:10.119Z,8.70
2022-10-12T20:06:38.720Z,7.90
2022-10-12T20:09:07.866Z,6.90
2022-10-12T20:11:36.577Z,7.13
2022-10-12T20:14:04.887Z,6.82
2022-10-12T20:16:35.151Z,10.88
2022-10-12T20:19:05.189Z,11.05
2022-10-12T20:21:33.187Z,10.48
2022-10-12T20:24:00.813Z,10.77
2022-10-12T20:26:29.067Z,11.45
2022-10-12T20:28:56.801Z,12.13
2022-10-12T20:31:25.132Z,12.57
2022-10-12T20:33:53.410Z,11.50
2022-10-12T20:36:28.503Z,9.55
2022-10-12T20:38:57.760Z,8.63
2022-10-12T20:41:26.500Z,8.13
2022-10-12T20:43:57.444Z,7.20
2022-10-12T20:46:26.458Z,6.95
2022-10-12T20:48:58.840Z,6.40
2022-10-12T20:51:30.368Z,5.38
2022-10-12T20:54:00.667Z,4.80
2022-10-12T20:56:30.156Z,4.53
2022-10-12T20:58:59.171Z,4.88
2022-10-12T21:01:26.905Z,4.10
2022-10-12T21:03:56.303Z,4.70
2022-10-12T21:06:24.810Z,5.97
2022-10-12T21:08:54.679Z,9.10
2022-10-12T21:11:23.360Z,11.27
2022-10-12T21:13:51.252Z,12.63
2022-10-12T21:16:19.242Z,14.68
2022-10-12T21:18:47.252Z,14.02
2022-10-12T21:21:19.475Z,12.02
2022-10-12T21:23:58.661Z,10.07
2022-10-12T21:26:30.146Z,9.98
2022-10-12T21:29:01.268Z,7.95
2022-10-12T21:31:32.289Z,7.65
2022-10-12T21:34:02.224Z,7.00
2022-10-12T21:36:31.600Z,5.72
2022-10-12T21:38:59.472Z,5.05
2022-10-12T21:41:29.237Z,4.68
2022-10-12T21:43:57.633Z,5.00
2022-10-12T21:46:31.352Z,4.72
2022-10-12T21:49:00.898Z,4.47
2022-10-12T21:51:31.094Z,4.50
2022-10-12T21:53:59.465Z,4.53
2022-10-12T21:56:30.744Z,5.20
2022-10-12T21:59:00.558Z,4.90
2022-10-12T22:01:31.498Z,5.15
2022-10-12T22:04:00.605Z,4.32
2022-10-12T22:06:29.746Z,4.38
2022-10-12T22:09:00.469Z,5.03
2022-10-12T22:11:31.485Z,4.75
2022-10-12T22:14:03.118Z,5.18
2022-10-12T22:16:31.587Z,6.05
2022-10-12T22:19:01.394Z,6.30
2022-10-12T22:21:36.312Z,5.88
2022-10-12T22:24:04.190Z,5.65
2022-10-12T22:26:32.096Z,5.43
2022-10-12T22:29:03.309Z,4.55
2022-10-12T22:31:31.208Z,4.40
2022-10-12T22:33:58.882Z,4.60
2022-10-12T22:36:28.947Z,4.47
2022-10-12T22:38:56.634Z,4.00
2022-10-12T22:41:24.763Z,3.90
2022-10-12T22:43:54.884Z,3.72
2022-10-12T22:46:24.325Z,4.00
2022-10-12T22:48:53.452Z,3.80
2022-10-12T22:51:31.876Z,4.22
2022-10-12T22:54:00.470Z,3.63
2022-10-12T22:56:28.880Z,3.60
2022-10-12T22:58:59.378Z,4.18
2022-10-12T23:01:27.830Z,4.07
2022-10-12T23:03:55.819Z,4.28
2022-10-12T23:06:24.304Z,3.63
2022-10-12T23:08:52.831Z,3.80
2022-10-12T23:11:26.262Z,3.35
2022-10-12T23:13:55.239Z,3.40
2022-10-12T23:16:28.660Z,3.13
2022-10-12T23:18:59.797Z,3.40
2022-10-12T23:21:30.225Z,3.38
2022-10-12T23:23:59.590Z,3.30
2022-10-12T23:26:28.707Z,3.30
2022-10-12T23:28:58.014Z,2.97
2022-10-12T23:31:28.694Z,3.10
2022-10-12T23:34:01.389Z,3.17
2022-10-12T23:36:30.500Z,3.05
2022-10-12T23:39:01.104Z,2.80
2022-10-12T23:41:29.101Z,3.60
2022-10-12T23:43:56.864Z,2.45
2022-10-12T23:46:24.587Z,2.95
2022-10-12T23:48:52.167Z,3.00
2022-10-12T23:51:20.314Z,3.13
2022-10-12T23:53:48.267Z,3.55
2022-10-12T23:56:15.941Z,4.13
2022-10-12T23:58:43.637Z,3.70
